createdAt,value
2023-05-24T00:00:11.477Z,64.34
2023-05-24T00:02:42.494Z,64.39
2023-05-24T00:05:12.345Z,64.42
2023-05-24T00:07:42.273Z,64.13
2023-05-24T00:10:13.485Z,64.56
2023-05-24T00:12:43.693Z,64.89
2023-05-24T00:15:13.873Z,64.82
2023-05-24T00:17:43.756Z,64.55
2023-05-24T00:20:15.083Z,64.87
2023-05-24T00:22:45.001Z,65.57
2023-05-24T00:25:14.832Z,65.86
2023-05-24T00:27:44.708Z,65.93
2023-05-24T00:30:14.944Z,65.87
2023-05-24T00:32:44.854Z,66.09
2023-05-24T00:35:14.844Z,65.60
2023-05-24T00:37:45.403Z,66.23
2023-05-24T00:40:17.007Z,66.11
2023-05-24T00:42:46.850Z,66.81
2023-05-24T00:45:16.765Z,67.71
2023-05-24T00:47:47.794Z,67.79
2023-05-24T00:50:18.184Z,67.89
2023-05-24T00:52:50.630Z,67.61
2023-05-24T00:55:21.045Z,68.12
2023-05-24T00:57:52.375Z,68.38
2023-05-24T01:00:23.241Z,69.09
2023-05-24T01:02:53.175Z,68.88
2023-05-24T01:05:23.670Z,68.52
2023-05-24T01:08:05.598Z,68.83
2023-05-24T01:10:56.541Z,70.03
2023-05-24T01:13:32.213Z,69.53
2023-05-24T01:16:14.351Z,70.17
2023-05-24T01:18:47.587Z,70.11
2023-05-24T01:21:39.961Z,70.67
2023-05-24T01:24:18.030Z,71.15
2023-05-24T01:27:11.794Z,70.71
2023-05-24T01:29:42.604Z,71.14
2023-05-24T01:32:13.360Z,69.83
2023-05-24T01:34:43.198Z,70.23
2023-05-24T01:37:13.113Z,70.50
2023-05-24T01:39:44.404Z,71.14
2023-05-24T01:42:19.979Z,71.14
2023-05-24T01:44:55.304Z,71.63
2023-05-24T01:47:30.585Z,71.24
2023-05-24T01:50:09.181Z,71.81
2023-05-24T01:52:40.066Z,72.50
2023-05-24T01:55:12.379Z,72.50
2023-05-24T01:57:45.202Z,71.86
2023-05-24T02:00:19.113Z,72.03
2023-05-24T02:02:49.541Z,71.17
2023-05-24T02:05:19.810Z,71.80
2023-05-24T02:07:49.647Z,71.46
2023-05-24T02:10:19.894Z,71.67
2023-05-24T02:12:49.857Z,71.29
2023-05-24T02:15:20.659Z,70.56
2023-05-24T02:17:50.546Z,71.67
2023-05-24T02:20:22.570Z,72.16
2023-05-24T02:22:52.380Z,72.27
2023-05-24T02:25:21.901Z,72.25
2023-05-24T02:27:52.161Z,72.60
2023-05-24T02:30:22.044Z,73.05
2023-05-24T02:32:52.187Z,72.92
2023-05-24T02:35:22.478Z,73.15
2023-05-24T02:37:52.334Z,73.15
2023-05-24T02:40:22.253Z,73.27
2023-05-24T02:42:52.107Z,73.14
2023-05-24T02:45:21.777Z,74.96
2023-05-24T02:47:51.960Z,74.40
2023-05-24T02:50:21.835Z,74.61
2023-05-24T02:52:51.747Z,74.81
2023-05-24T02:55:21.677Z,75.23
2023-05-24T02:57:52.759Z,75.00
2023-05-24T03:00:22.814Z,75.56
2023-05-24T03:02:52.987Z,75.80
2023-05-24T03:05:23.021Z,75.69
2023-05-24T03:07:52.875Z,76.09
2023-05-24T03:10:22.726Z,76.20
2023-05-24T03:12:52.583Z,75.65
2023-05-24T03:15:22.196Z,76.53
2023-05-24T03:17:52.161Z,76.26
2023-05-24T03:20:23.564Z,76.85
2023-05-24T03:22:53.677Z,76.67
2023-05-24T03:25:23.405Z,76.22
2023-05-24T03:27:53.241Z,76.65
2023-05-24T03:30:22.960Z,77.20
2023-05-24T03:32:54.609Z,76.79
2023-05-24T03:35:24.824Z,76.47
2023-05-24T03:37:55.021Z,77.28
2023-05-24T03:40:25.930Z,76.69
2023-05-24T03:43:00.852Z,76.60
2023-05-24T03:45:39.782Z,76.15
2023-05-24T03:48:08.144Z,76.81
2023-05-24T03:50:38.376Z,77.16
2023-05-24T03:53:08.270Z,76.42
2023-05-24T03:55:38.484Z,77.51
2023-05-24T03:58:09.824Z,77.61
2023-05-24T04:00:39.937Z,76.99
2023-05-24T04:03:09.955Z,78.60
2023-05-24T04:05:41.324Z,77.76
2023-05-24T04:08:12.248Z,77.57
2023-05-24T04:10:43.769Z,77.92
2023-05-24T04:13:14.007Z,77.95
2023-05-24T04:15:43.845Z,77.98
2023-05-24T04:18:13.633Z,78.13
2023-05-24T04:20:43.769Z,77.73
2023-05-24T04:23:13.823Z,77.73
2023-05-24T04:25:43.934Z,78.12
2023-05-24T04:28:15.226Z,77.60
2023-05-24T04:30:45.947Z,78.92
2023-05-24T04:33:16.894Z,77.70
2023-05-24T04:35:47.650Z,78.17
2023-05-24T04:38:17.686Z,79.54
2023-05-24T04:40:47.575Z,78.60
2023-05-24T04:43:17.468Z,78.68
2023-05-24T04:45:47.488Z,78.85
2023-05-24T04:48:17.601Z,78.27
2023-05-24T04:50:48.000Z,78.90
2023-05-24T04:53:17.922Z,77.64
2023-05-24T04:55:48.575Z,78.32
2023-05-24T04:58:18.401Z,77.20
2023-05-24T05:00:48.303Z,77.62
2023-05-24T05:03:18.374Z,77.47
2023-05-24T05:05:48.622Z,77.29
2023-05-24T05:08:18.300Z,76.83
2023-05-24T05:10:48.318Z,77.13
2023-05-24T05:13:18.183Z,77.01
2023-05-24T05:15:48.066Z,76.67
2023-05-24T05:18:18.063Z,76.32
2023-05-24T05:20:48.038Z,76.73
2023-05-24T05:23:18.000Z,76.73
2023-05-24T05:25:47.932Z,76.25
2023-05-24T05:28:17.840Z,77.49
2023-05-24T05:30:47.688Z,75.91
2023-05-24T05:33:17.673Z,76.86
2023-05-24T05:35:47.528Z,75.89
2023-05-24T05:38:17.155Z,76.31
2023-05-24T05:40:47.248Z,75.98
2023-05-24T05:43:17.117Z,75.53
2023-05-24T05:45:47.101Z,75.90
2023-05-24T05:48:16.987Z,75.00
2023-05-24T05:50:46.841Z,74.44
2023-05-24T05:53:17.685Z,73.72
2023-05-24T05:55:47.665Z,73.16
2023-05-24T05:58:17.277Z,73.45
2023-05-24T06:00:47.188Z,71.96
2023-05-24T06:03:17.250Z,70.90
2023-05-24T06:05:47.197Z,70.77
2023-05-24T06:08:17.059Z,70.58
2023-05-24T06:10:46.927Z,70.11
2023-05-24T06:13:16.868Z,68.94
2023-05-24T06:15:46.834Z,68.79
2023-05-24T06:18:16.818Z,67.92
2023-05-24T06:20:47.034Z,68.00
2023-05-24T06:23:16.986Z,68.17
2023-05-24T06:25:47.198Z,67.53
2023-05-24T06:28:17.119Z,66.41
2023-05-24T06:30:48.713Z,65.91
2023-05-24T06:33:19.032Z,64.96
2023-05-24T06:35:48.906Z,64.80
2023-05-24T06:38:18.768Z,63.81
2023-05-24T06:40:48.688Z,63.52
2023-05-24T06:43:18.617Z,63.16
2023-05-24T06:45:48.530Z,62.88
2023-05-24T06:48:18.189Z,62.84
2023-05-24T06:50:48.284Z,63.21
2023-05-24T06:53:18.197Z,64.05
2023-05-24T06:55:48.026Z,64.58
2023-05-24T06:58:17.896Z,64.25
2023-05-24T07:00:48.010Z,63.14
2023-05-24T07:03:17.894Z,62.46
2023-05-24T07:05:47.745Z,62.34
2023-05-24T07:08:17.579Z,61.22
2023-05-24T07:10:47.669Z,60.95
2023-05-24T07:13:17.538Z,59.71
2023-05-24T07:15:47.915Z,60.63
2023-05-24T07:18:17.522Z,60.09
2023-05-24T07:20:48.060Z,60.29
2023-05-24T07:23:18.114Z,59.18
2023-05-24T07:25:48.001Z,58.38
2023-05-24T07:28:19.563Z,57.65
2023-05-24T07:30:49.681Z,57.78
2023-05-24T07:33:20.001Z,57.98
2023-05-24T07:35:51.694Z,57.29
2023-05-24T07:38:21.313Z,57.29
2023-05-24T07:40:51.192Z,56.73
2023-05-24T07:43:21.102Z,55.85
2023-05-24T07:45:51.010Z,55.27
2023-05-24T07:48:21.790Z,55.24
2023-05-24T07:50:52.735Z,53.94
2023-05-24T07:53:23.354Z,53.94
2023-05-24T07:55:53.573Z,53.91
2023-05-24T07:58:23.117Z,53.83
2023-05-24T08:00:53.733Z,54.07
2023-05-24T08:03:25.308Z,52.48
2023-05-24T08:05:55.279Z,50.84
2023-05-24T08:08:24.827Z,52.20
2023-05-24T08:10:54.695Z,53.58
2023-05-24T08:13:24.597Z,53.34
2023-05-24T08:15:54.810Z,53.13
2023-05-24T08:18:24.853Z,53.13
2023-05-24T08:20:54.719Z,52.72
2023-05-24T08:23:24.878Z,52.21
2023-05-24T08:25:54.923Z,52.93
2023-05-24T08:28:24.863Z,52.32
2023-05-24T08:30:54.755Z,51.69
2023-05-24T08:33:25.055Z,50.21
2023-05-24T08:35:55.306Z,50.46
2023-05-24T08:38:25.114Z,48.40
2023-05-24T08:40:55.289Z,48.56
2023-05-24T08:43:25.817Z,48.97
2023-05-24T08:45:58.816Z,48.86
2023-05-24T08:48:30.145Z,48.86
2023-05-24T08:51:00.427Z,49.03
2023-05-24T08:53:31.603Z,49.21
2023-05-24T08:56:01.897Z,49.57
2023-05-24T08:58:32.474Z,48.06
2023-05-24T09:01:02.519Z,48.00
2023-05-24T09:03:33.983Z,49.46
2023-05-24T09:06:05.737Z,48.78
2023-05-24T09:08:37.311Z,47.50
2023-05-24T09:11:09.259Z,46.77
2023-05-24T09:13:39.411Z,48.25
2023-05-24T09:16:10.596Z,48.46
2023-05-24T09:18:45.116Z,48.96
2023-05-24T09:21:15.241Z,48.60
2023-05-24T09:23:45.947Z,49.62
2023-05-24T09:26:15.643Z,50.48
2023-05-24T09:28:45.562Z,50.24
2023-05-24T09:31:15.466Z,50.59
2023-05-24T09:33:47.146Z,50.57
2023-05-24T09:36:18.581Z,51.44
2023-05-24T09:38:48.556Z,52.15
2023-05-24T09:41:18.379Z,52.15
2023-05-24T09:43:51.992Z,50.34
2023-05-24T09:46:21.912Z,50.13
2023-05-24T09:49:03.404Z,50.07
2023-05-24T09:51:35.032Z,50.74
2023-05-24T09:54:08.148Z,50.04
2023-05-24T09:56:39.611Z,50.71
2023-05-24T09:59:10.366Z,50.10
2023-05-24T10:01:40.818Z,49.52
2023-05-24T10:04:12.532Z,49.52
2023-05-24T10:06:44.381Z,48.19
2023-05-24T10:09:15.301Z,48.52
2023-05-24T10:11:45.295Z,48.25
2023-05-24T10:14:15.704Z,49.01
2023-05-24T10:16:45.542Z,50.12
2023-05-24T10:19:16.919Z,50.05
2023-05-24T10:21:47.649Z,49.65
2023-05-24T10:24:20.324Z,49.66
2023-05-24T10:26:52.594Z,50.06
2023-05-24T10:29:25.871Z,49.88
2023-05-24T10:31:56.583Z,49.85
2023-05-24T10:34:27.081Z,49.85
2023-05-24T10:36:58.582Z,50.13
2023-05-24T10:39:28.899Z,48.97
2023-05-24T10:41:58.881Z,47.80
2023-05-24T10:44:33.185Z,47.46
2023-05-24T10:47:06.152Z,47.18
2023-05-24T10:49:36.238Z,46.59
2023-05-24T10:52:11.493Z,47.29
2023-05-24T10:54:52.451Z,47.84
2023-05-24T10:57:13.929Z,46.78
2023-05-24T10:59:45.250Z,45.86
2023-05-24T11:02:16.687Z,45.88
2023-05-24T11:04:50.374Z,45.62
2023-05-24T11:07:20.854Z,46.02
2023-05-24T11:09:55.249Z,45.84
2023-05-24T11:12:26.430Z,46.40
2023-05-24T11:14:56.337Z,46.42
2023-05-24T11:17:26.024Z,47.45
2023-05-24T11:19:56.681Z,46.66
2023-05-24T11:22:27.426Z,46.37
2023-05-24T11:24:59.547Z,45.70
2023-05-24T11:27:29.816Z,45.56
2023-05-24T11:30:00.143Z,45.28
2023-05-24T11:32:30.099Z,44.96
2023-05-24T11:34:59.956Z,45.39
2023-05-24T11:37:42.595Z,44.74
2023-05-24T11:40:05.093Z,45.02
2023-05-24T11:42:35.175Z,44.57
2023-05-24T11:45:11.627Z,45.32
2023-05-24T11:47:41.752Z,44.57
2023-05-24T11:50:13.465Z,43.70
2023-05-24T11:52:44.109Z,42.62
2023-05-24T11:55:16.663Z,41.95
2023-05-24T11:57:49.104Z,42.46
2023-05-24T12:00:27.193Z,41.90
2023-05-24T12:03:02.153Z,42.32
2023-05-24T12:05:32.222Z,43.40
2023-05-24T12:08:12.405Z,43.63
2023-05-24T12:10:43.927Z,43.65
2023-05-24T12:13:24.976Z,42.63
2023-05-24T12:15:58.141Z,42.63
2023-05-24T12:18:28.364Z,41.92
2023-05-24T12:20:58.514Z,41.64
2023-05-24T12:23:30.547Z,41.94
2023-05-24T12:26:01.286Z,40.92
2023-05-24T12:28:38.908Z,39.23
2023-05-24T12:31:09.650Z,38.48
2023-05-24T12:33:39.726Z,38.00
2023-05-24T12:36:11.662Z,38.74
2023-05-24T12:38:41.503Z,38.85
2023-05-24T12:41:13.963Z,39.18
2023-05-24T12:43:44.620Z,39.09
2023-05-24T12:46:14.735Z,39.38
2023-05-24T12:48:45.329Z,39.68
2023-05-24T12:51:15.173Z,38.44
2023-05-24T12:53:45.234Z,37.67
2023-05-24T12:56:15.131Z,37.44
2023-05-24T12:58:45.750Z,39.09
2023-05-24T13:01:15.752Z,39.11
2023-05-24T13:03:46.158Z,39.11
2023-05-24T13:06:15.931Z,38.68
2023-05-24T13:08:45.782Z,38.34
2023-05-24T13:11:16.407Z,37.11
2023-05-24T13:13:46.311Z,36.47
2023-05-24T13:16:16.264Z,38.77
2023-05-24T13:18:46.326Z,38.77
2023-05-24T13:21:16.292Z,39.84
2023-05-24T13:23:46.711Z,39.86
2023-05-24T13:26:16.552Z,40.47
2023-05-24T13:29:07.743Z,41.39
2023-05-24T13:31:18.294Z,42.31
2023-05-24T13:33:48.725Z,42.48
2023-05-24T13:36:18.597Z,42.72
2023-05-24T13:38:54.322Z,42.85
2023-05-24T13:41:20.677Z,41.42
2023-05-24T13:43:50.663Z,41.91
2023-05-24T13:46:21.124Z,41.90
2023-05-24T13:48:51.413Z,43.16
2023-05-24T13:51:22.512Z,43.47
2023-05-24T13:53:52.639Z,43.28
2023-05-24T13:56:24.181Z,43.60
2023-05-24T13:58:55.077Z,43.61
2023-05-24T14:01:25.100Z,43.72
2023-05-24T14:03:55.259Z,44.32
2023-05-24T14:06:25.428Z,43.76
2023-05-24T14:08:55.555Z,43.76
2023-05-24T14:11:25.627Z,45.65
2023-05-24T14:14:51.437Z,44.92
2023-05-24T14:16:26.926Z,44.60
2023-05-24T14:18:56.879Z,44.83
2023-05-24T14:21:27.394Z,44.41
2023-05-24T14:23:57.888Z,44.29
2023-05-24T14:26:27.842Z,44.62
2023-05-24T14:28:57.708Z,44.67
2023-05-24T14:31:27.928Z,44.92
2023-05-24T14:33:57.773Z,44.93
2023-05-24T14:36:27.442Z,45.01
2023-05-24T14:38:57.277Z,44.77
2023-05-24T14:41:27.335Z,43.62
2023-05-24T14:43:57.177Z,43.49
2023-05-24T14:46:27.588Z,44.54
2023-05-24T14:48:57.775Z,44.23
2023-05-24T14:51:27.617Z,44.82
2023-05-24T14:53:57.818Z,42.89
2023-05-24T14:56:27.429Z,44.76
2023-05-24T14:58:57.647Z,45.39
2023-05-24T15:01:27.537Z,45.20
2023-05-24T15:03:57.483Z,44.84
2023-05-24T15:06:27.182Z,43.87
2023-05-24T15:08:57.011Z,45.54
2023-05-24T15:11:26.938Z,45.07
2023-05-24T15:13:58.431Z,45.71
2023-05-24T15:16:28.709Z,45.37
2023-05-24T15:18:58.528Z,45.07
2023-05-24T15:21:28.438Z,44.33
2023-05-24T15:23:58.290Z,44.75
2023-05-24T15:26:28.211Z,43.88
2023-05-24T15:28:58.229Z,44.77
2023-05-24T15:31:28.161Z,44.50
2023-05-24T15:33:58.120Z,45.29
2023-05-24T15:36:27.928Z,44.54
2023-05-24T15:38:58.064Z,44.80
2023-05-24T15:41:28.305Z,44.88
2023-05-24T15:43:59.858Z,44.20
2023-05-24T15:46:30.009Z,44.56
2023-05-24T15:54:09.912Z,45.17
2023-05-24T15:56:39.749Z,44.89
2023-05-24T15:59:09.616Z,44.67
2023-05-24T16:01:39.535Z,44.42
2023-05-24T16:04:11.202Z,44.42
2023-05-24T16:06:41.091Z,44.48
2023-05-24T16:09:10.965Z,45.67
2023-05-24T16:11:40.996Z,46.11
2023-05-24T16:33:25.219Z,46.32
2023-05-24T16:36:01.213Z,46.37
2023-05-24T16:38:29.990Z,46.50
2023-05-24T16:41:00.292Z,45.85
2023-05-24T16:43:30.305Z,45.82
2023-05-24T16:46:01.505Z,45.37
2023-05-24T16:48:31.654Z,45.35
2023-05-24T16:51:01.913Z,44.75
2023-05-24T16:53:31.821Z,45.35
2023-05-24T16:56:01.672Z,44.87
2023-05-24T16:58:32.087Z,44.13
2023-05-24T17:01:01.946Z,44.08
2023-05-24T17:03:33.972Z,45.15
2023-05-24T17:06:05.375Z,45.31
2023-05-24T17:08:36.875Z,46.08
2023-05-24T17:11:08.846Z,46.68
2023-05-24T17:13:38.982Z,46.05
2023-05-24T17:16:11.614Z,45.74
2023-05-24T17:18:41.703Z,45.37
2023-05-24T17:21:11.915Z,45.68
2023-05-24T17:23:41.484Z,46.52
2023-05-24T17:26:14.836Z,45.29
2023-05-24T17:28:46.132Z,44.73
2023-05-24T17:31:16.534Z,42.34
2023-05-24T17:33:46.525Z,41.72
2023-05-24T17:36:16.407Z,43.05
2023-05-24T17:38:46.248Z,41.47
2023-05-24T17:41:16.112Z,40.80
2023-05-24T17:43:46.027Z,39.18
2023-05-24T17:46:17.319Z,38.63
2023-05-24T17:48:47.927Z,38.61
2023-05-24T17:51:19.545Z,37.98
2023-05-24T17:53:49.163Z,36.77
2023-05-24T17:56:19.209Z,37.35
2023-05-24T17:58:50.012Z,38.60
2023-05-24T18:01:20.370Z,43.42
2023-05-24T18:03:50.176Z,43.42
2023-05-24T18:06:19.735Z,44.26
2023-05-24T18:08:49.593Z,46.07
2023-05-24T18:11:19.514Z,46.24
2023-05-24T18:13:49.664Z,46.48
2023-05-24T18:16:19.565Z,47.21
2023-05-24T18:18:49.791Z,48.24
2023-05-24T18:21:19.630Z,48.24
2023-05-24T18:23:49.872Z,48.34
2023-05-24T18:26:19.732Z,49.28
2023-05-24T18:28:49.867Z,49.17
2023-05-24T18:31:20.467Z,49.45
2023-05-24T18:33:50.445Z,49.90
2023-05-24T18:36:20.105Z,49.80
2023-05-24T18:38:50.086Z,50.68
2023-05-24T18:41:19.916Z,51.44
2023-05-24T18:43:49.793Z,51.44
2023-05-24T18:46:19.628Z,51.48
2023-05-24T18:48:49.510Z,50.84
2023-05-24T18:51:19.576Z,50.61
2023-05-24T18:53:51.632Z,52.86
2023-05-24T18:56:21.872Z,52.86
2023-05-24T18:58:52.079Z,52.54
2023-05-24T19:01:21.995Z,51.68
2023-05-24T19:03:51.876Z,52.18
2023-05-24T19:06:21.715Z,52.24
2023-05-24T19:08:51.571Z,52.96
2023-05-24T19:11:21.421Z,53.23
2023-05-24T19:13:50.955Z,52.71
2023-05-24T19:16:21.138Z,53.06
2023-05-24T19:18:51.321Z,53.71
2023-05-24T19:21:22.882Z,53.71
2023-05-24T19:23:52.799Z,53.71
2023-05-24T19:26:22.628Z,53.97
2023-05-24T19:28:54.094Z,54.09
2023-05-24T19:31:26.026Z,54.09
2023-05-24T19:34:00.359Z,55.11
2023-05-24T19:36:27.766Z,54.54
2023-05-24T19:38:57.651Z,55.97
2023-05-24T19:41:27.915Z,55.77
2023-05-24T19:43:58.714Z,55.77
2023-05-24T19:46:29.728Z,55.50
2023-05-24T19:49:00.517Z,55.50
2023-05-24T19:51:30.370Z,56.38
2023-05-24T19:54:00.588Z,56.94
2023-05-24T19:56:30.434Z,57.26
2023-05-24T19:59:00.457Z,56.79
2023-05-24T20:01:30.321Z,56.52
2023-05-24T20:04:00.366Z,56.09
2023-05-24T20:06:30.065Z,57.04
2023-05-24T20:09:00.357Z,57.69
2023-05-24T20:11:30.450Z,57.69
2023-05-24T20:14:00.337Z,57.62
2023-05-24T20:16:31.383Z,58.18
2023-05-24T20:19:01.293Z,58.61
2023-05-24T20:21:31.211Z,59.47
2023-05-24T20:24:01.378Z,59.44
2023-05-24T20:26:32.710Z,59.44
2023-05-24T20:29:02.941Z,58.84
2023-05-24T20:31:33.090Z,58.84
2023-05-24T20:34:02.949Z,58.78
2023-05-24T20:36:33.188Z,60.16
2023-05-24T20:39:03.084Z,60.00
2023-05-24T20:41:34.165Z,60.30
2023-05-24T20:44:04.028Z,60.33
2023-05-24T20:46:34.058Z,60.09
2023-05-24T20:49:06.061Z,60.52
2023-05-24T20:51:36.387Z,60.64
2023-05-24T20:54:06.407Z,60.64
2023-05-24T20:56:36.370Z,62.04
2023-05-24T20:59:06.392Z,61.83
2023-05-24T21:01:36.278Z,61.63
2023-05-24T21:04:06.456Z,61.59
2023-05-24T21:06:36.558Z,61.60
2023-05-24T21:09:06.785Z,61.71
2023-05-24T21:11:36.650Z,62.49
2023-05-24T21:14:06.816Z,61.62
2023-05-24T21:16:37.226Z,61.68
2023-05-24T21:19:07.176Z,62.22
2023-05-24T21:21:37.767Z,62.50
2023-05-24T21:24:08.778Z,63.30
2023-05-24T21:26:38.642Z,62.91
2023-05-24T21:29:08.566Z,62.96
2023-05-24T21:31:38.742Z,62.94
2023-05-24T21:34:10.182Z,63.22
2023-05-24T21:36:40.024Z,63.64
2023-05-24T21:39:09.964Z,64.27
2023-05-24T21:41:39.845Z,64.25
2023-05-24T21:44:11.941Z,65.06
2023-05-24T21:46:41.823Z,65.67
2023-05-24T21:49:11.681Z,66.10
2023-05-24T21:51:41.571Z,66.28
2023-05-24T21:54:13.744Z,66.29
2023-05-24T21:56:43.583Z,66.76
2023-05-24T21:59:13.290Z,66.05
2023-05-24T22:01:43.220Z,67.00
2023-05-24T22:04:13.529Z,66.45
2023-05-24T22:06:44.752Z,66.72
2023-05-24T22:09:14.456Z,66.40
2023-05-24T22:11:44.309Z,66.54
2023-05-24T22:14:15.304Z,67.89
2023-05-24T22:16:45.189Z,68.13
2023-05-24T22:19:18.398Z,68.06
2023-05-24T22:21:48.937Z,68.25
2023-05-24T22:24:18.865Z,68.47
2023-05-24T22:26:49.895Z,69.86
2023-05-24T22:29:20.614Z,69.11
2023-05-24T22:31:50.485Z,69.03
2023-05-24T22:34:27.706Z,69.03
2023-05-24T22:36:57.991Z,70.13
2023-05-24T22:39:28.397Z,70.42
2023-05-24T22:41:58.271Z,70.35
2023-05-24T22:44:28.464Z,70.78
2023-05-24T22:46:58.324Z,70.39
2023-05-24T22:49:29.468Z,70.98
2023-05-24T22:52:00.359Z,71.12
2023-05-24T22:54:30.500Z,71.62
2023-05-24T22:57:00.950Z,71.63
2023-05-24T22:59:32.643Z,71.25
2023-05-24T23:02:02.650Z,71.75
2023-05-24T23:04:33.568Z,71.85
2023-05-24T23:07:03.450Z,71.74
2023-05-24T23:09:36.446Z,71.93
2023-05-24T23:12:08.283Z,71.48
2023-05-24T23:14:41.368Z,72.16
2023-05-24T23:17:15.170Z,72.03
2023-05-24T23:19:45.440Z,71.90
2023-05-24T23:22:18.828Z,71.98
2023-05-24T23:24:49.045Z,71.97
2023-05-24T23:35:42.958Z,72.50
2023-05-24T23:38:13.871Z,72.51
2023-05-24T23:40:44.034Z,71.70
2023-05-24T23:43:14.172Z,71.70
2023-05-24T23:45:44.302Z,71.94
2023-05-24T23:48:15.021Z,72.08
2023-05-24T23:50:54.066Z,72.39
2023-05-24T23:53:16.731Z,72.40
2023-05-24T23:55:46.570Z,73.48
2023-05-24T23:58:16.774Z,72.35
